createdAt,value
2023-04-18T00:00:25.741Z,99.98
2023-04-18T00:01:25.812Z,99.07
2023-04-18T00:02:25.950Z,100.50
2023-04-18T00:03:26.047Z,100.44
2023-04-18T00:04:26.088Z,99.31
2023-04-18T00:05:26.093Z,98.97
2023-04-18T00:06:26.107Z,98.26
2023-04-18T00:07:26.142Z,98.98
2023-04-18T00:08:26.199Z,98.55
2023-04-18T00:09:26.293Z,103.65
2023-04-18T00:10:26.313Z,99.58
2023-04-18T00:11:26.428Z,98.61
2023-04-18T00:12:26.434Z,103.49
2023-04-18T00:13:26.517Z,101.57
2023-04-18T00:14:26.520Z,98.67
2023-04-18T00:15:26.559Z,98.88
2023-04-18T00:16:26.669Z,98.28
2023-04-18T00:17:26.694Z,101.10
2023-04-18T00:18:26.775Z,101.20
2023-04-18T00:19:26.738Z,97.97
2023-04-18T00:20:26.776Z,97.90
2023-04-18T00:21:26.798Z,101.31
2023-04-18T00:22:26.849Z,97.85
2023-04-18T00:23:26.915Z,100.62
2023-04-18T00:24:26.998Z,98.74
2023-04-18T00:25:27.025Z,97.07
2023-04-18T00:26:27.053Z,98.70
2023-04-18T00:27:27.091Z,96.04
2023-04-18T00:28:27.148Z,102.25
2023-04-18T00:29:27.232Z,98.89
2023-04-18T00:30:27.264Z,98.24
2023-04-18T00:31:27.358Z,100.65
2023-04-18T00:32:27.361Z,98.02
2023-04-18T00:33:27.387Z,98.85
2023-04-18T00:34:27.461Z,101.05
2023-04-18T00:35:27.577Z,98.86
2023-04-18T00:36:27.629Z,98.71
2023-04-18T00:37:27.650Z,96.66
2023-04-18T00:38:27.730Z,100.53
2023-04-18T00:39:27.788Z,101.76
2023-04-18T00:40:28.287Z,99.55
2023-04-18T00:41:27.848Z,99.95
2023-04-18T00:42:27.937Z,98.62
2023-04-18T00:43:27.992Z,100.18
2023-04-18T00:44:28.008Z,98.00
2023-04-18T00:45:28.094Z,97.43
2023-04-18T00:46:28.188Z,97.94
2023-04-18T00:47:28.272Z,97.62
2023-04-18T00:48:28.291Z,97.82
2023-04-18T00:49:28.334Z,99.72
2023-04-18T00:50:28.411Z,97.58
2023-04-18T00:51:28.429Z,97.70
2023-04-18T00:52:28.494Z,101.69
2023-04-18T00:53:28.522Z,101.64
2023-04-18T00:54:28.772Z,101.49
2023-04-18T00:55:28.620Z,98.32
2023-04-18T00:56:28.688Z,98.32
2023-04-18T00:57:28.701Z,98.23
2023-04-18T00:58:28.772Z,98.34
2023-04-18T00:59:28.848Z,99.10
2023-04-18T01:00:28.923Z,97.85
2023-04-18T01:01:28.991Z,98.20
2023-04-18T01:02:29.048Z,99.29
2023-04-18T01:03:29.239Z,99.17
2023-04-18T01:04:29.116Z,94.79
2023-04-18T01:05:29.095Z,96.43
2023-04-18T01:06:29.099Z,97.14
2023-04-18T01:07:29.158Z,96.49
2023-04-18T01:08:29.194Z,99.06
2023-04-18T01:09:29.247Z,98.55
2023-04-18T01:10:29.298Z,97.64
2023-04-18T01:11:29.332Z,97.19
2023-04-18T01:12:29.362Z,95.91
2023-04-18T01:13:29.374Z,98.35
2023-04-18T01:14:29.440Z,101.02
2023-04-18T01:15:29.541Z,96.31
2023-04-18T01:16:29.588Z,100.06
2023-04-18T01:17:29.623Z,97.38
2023-04-18T01:18:29.630Z,97.75
2023-04-18T01:19:29.660Z,98.01
2023-04-18T01:20:29.727Z,100.29
2023-04-18T01:21:29.761Z,96.68
2023-04-18T01:22:29.794Z,98.87
2023-04-18T01:23:29.828Z,98.90
2023-04-18T01:24:30.812Z,97.84
2023-04-18T01:25:29.961Z,98.77
2023-04-18T01:26:30.036Z,98.70
2023-04-18T01:27:30.068Z,96.74
2023-04-18T01:28:30.072Z,100.14
2023-04-18T01:29:30.143Z,97.04
2023-04-18T01:30:30.181Z,100.67
2023-04-18T01:31:30.225Z,100.44
2023-04-18T01:32:30.265Z,98.46
2023-04-18T01:33:30.343Z,96.58
2023-04-18T01:34:30.338Z,98.12
2023-04-18T01:35:30.365Z,97.27
2023-04-18T01:36:30.476Z,100.87
2023-04-18T01:37:30.498Z,99.74
2023-04-18T01:38:30.521Z,97.84
2023-04-18T01:39:30.552Z,97.06
2023-04-18T01:40:30.620Z,97.31
2023-04-18T01:41:30.651Z,97.25
2023-04-18T01:42:30.782Z,98.91
2023-04-18T01:43:30.772Z,99.67
2023-04-18T01:44:30.844Z,99.83
2023-04-18T01:45:30.881Z,98.79
2023-04-18T01:46:31.021Z,98.56
2023-04-18T01:47:31.082Z,98.36
2023-04-18T01:48:31.022Z,97.48
2023-04-18T01:49:31.084Z,98.85
2023-04-18T01:50:31.199Z,97.49
2023-04-18T01:51:31.193Z,97.06
2023-04-18T01:52:31.246Z,98.46
2023-04-18T01:53:31.305Z,99.19
2023-04-18T01:54:31.401Z,94.95
2023-04-18T01:55:31.399Z,94.85
2023-04-18T01:56:31.450Z,96.25
2023-04-18T01:57:31.492Z,94.54
2023-04-18T01:58:31.515Z,97.13
2023-04-18T01:59:31.560Z,96.64
2023-04-18T02:00:31.626Z,98.11
2023-04-18T02:01:31.657Z,96.07
2023-04-18T02:02:31.747Z,97.08
2023-04-18T02:03:31.913Z,97.58
2023-04-18T02:04:31.774Z,99.08
2023-04-18T02:05:31.838Z,96.42
2023-04-18T02:06:31.933Z,99.18
2023-04-18T02:07:31.986Z,96.58
2023-04-18T02:08:31.970Z,98.88
2023-04-18T02:09:32.010Z,99.92
2023-04-18T02:10:32.069Z,96.58
2023-04-18T02:11:32.146Z,99.80
2023-04-18T02:12:32.162Z,98.04
2023-04-18T02:13:32.246Z,94.61
2023-04-18T02:14:32.286Z,96.78
2023-04-18T02:15:32.333Z,94.41
2023-04-18T02:16:32.428Z,93.74
2023-04-18T02:17:32.530Z,99.24
2023-04-18T02:18:32.524Z,102.10
2023-04-18T02:19:32.810Z,94.68
2023-04-18T02:20:32.618Z,98.87
2023-04-18T02:21:32.695Z,98.77
2023-04-18T02:22:32.722Z,94.17
2023-04-18T02:23:32.775Z,95.89
2023-04-18T02:24:32.857Z,98.45
2023-04-18T02:25:32.870Z,95.23
2023-04-18T02:26:32.939Z,95.77
2023-04-18T02:27:33.070Z,95.60
2023-04-18T02:28:33.050Z,94.74
2023-04-18T02:29:33.088Z,95.95
2023-04-18T02:30:33.107Z,98.14
2023-04-18T02:31:33.199Z,97.17
2023-04-18T02:32:33.225Z,95.87
2023-04-18T02:33:33.267Z,99.76
2023-04-18T02:34:33.313Z,94.40
2023-04-18T02:35:33.333Z,94.97
2023-04-18T02:36:33.391Z,99.68
2023-04-18T02:37:33.414Z,99.94
2023-04-18T02:38:33.481Z,96.64
2023-04-18T02:39:33.519Z,96.79
2023-04-18T02:40:33.566Z,96.07
2023-04-18T02:41:33.631Z,97.26
2023-04-18T02:42:33.683Z,95.94
2023-04-18T02:43:33.703Z,96.63
2023-04-18T02:44:33.840Z,97.20
2023-04-18T02:45:33.866Z,95.47
2023-04-18T02:46:33.884Z,95.34
2023-04-18T02:47:43.763Z,96.92
2023-04-18T02:48:34.952Z,97.06
2023-04-18T02:49:33.911Z,97.41
2023-04-18T02:50:33.849Z,97.00
2023-04-18T02:51:33.908Z,96.73
2023-04-18T02:52:33.827Z,97.30
2023-04-18T02:53:33.879Z,98.51
2023-04-18T02:54:33.855Z,95.17
2023-04-18T02:55:33.838Z,97.90
2023-04-18T02:56:33.922Z,98.70
2023-04-18T02:57:33.958Z,97.92
2023-04-18T02:58:34.089Z,97.68
2023-04-18T02:59:34.068Z,93.82
2023-04-18T03:00:34.104Z,95.77
2023-04-18T03:01:34.231Z,98.19
2023-04-18T03:02:34.330Z,95.29
2023-04-18T03:03:34.421Z,98.41
2023-04-18T03:04:34.377Z,95.11
2023-04-18T03:05:34.344Z,95.80
2023-04-18T03:06:34.486Z,97.68
2023-04-18T03:07:34.486Z,96.26
2023-04-18T03:08:34.603Z,97.23
2023-04-18T03:09:34.613Z,97.58
2023-04-18T03:10:34.628Z,96.15
2023-04-18T03:11:34.738Z,96.36
2023-04-18T03:12:34.782Z,96.60
2023-04-18T03:13:34.803Z,96.64
2023-04-18T03:14:34.875Z,95.15
2023-04-18T03:15:34.965Z,92.89
2023-04-18T03:16:35.361Z,94.99
2023-04-18T03:17:35.076Z,95.92
2023-04-18T03:18:35.111Z,93.57
2023-04-18T03:19:35.183Z,95.84
2023-04-18T03:20:35.251Z,98.00
2023-04-18T03:21:35.320Z,94.99
2023-04-18T03:22:35.390Z,95.61
2023-04-18T03:23:35.396Z,97.35
2023-04-18T03:24:35.506Z,93.60
2023-04-18T03:25:35.594Z,94.04
2023-04-18T03:26:35.586Z,96.84
2023-04-18T03:27:35.625Z,91.68
2023-04-18T03:28:35.733Z,96.29
2023-04-18T03:29:35.761Z,93.99
2023-04-18T03:30:35.776Z,96.11
2023-04-18T03:31:35.891Z,94.04
2023-04-18T03:32:35.905Z,94.23
2023-04-18T03:33:35.943Z,99.21
2023-04-18T03:34:36.019Z,94.71
2023-04-18T03:35:36.031Z,93.43
2023-04-18T03:36:36.204Z,95.22
2023-04-18T03:37:36.181Z,93.93
2023-04-18T03:38:36.237Z,95.06
2023-04-18T03:39:36.307Z,91.96
2023-04-18T03:40:36.339Z,97.02
2023-04-18T03:41:36.429Z,95.11
2023-04-18T03:42:36.477Z,95.28
2023-04-18T03:43:36.554Z,94.66
2023-04-18T03:44:36.603Z,95.22
2023-04-18T03:45:36.628Z,95.24
2023-04-18T03:46:36.714Z,94.38
2023-04-18T03:47:36.815Z,94.27
2023-04-18T03:48:36.847Z,92.95
2023-04-18T03:49:36.904Z,96.27
2023-04-18T03:50:36.911Z,92.98
2023-04-18T03:51:36.979Z,93.64
2023-04-18T03:52:37.019Z,92.43
2023-04-18T03:53:37.135Z,94.58
2023-04-18T03:54:37.149Z,91.68
2023-04-18T03:55:37.191Z,95.61
2023-04-18T03:56:37.285Z,92.80
2023-04-18T03:57:37.360Z,92.82
2023-04-18T03:58:37.388Z,95.16
2023-04-18T03:59:37.455Z,93.97
2023-04-18T04:00:37.540Z,93.86
2023-04-18T04:01:37.620Z,94.20
2023-04-18T04:02:37.784Z,93.80
2023-04-18T04:03:37.747Z,93.34
2023-04-18T04:04:37.839Z,96.12
2023-04-18T04:05:37.816Z,91.42
2023-04-18T04:06:37.897Z,92.69
2023-04-18T04:07:37.904Z,94.56
2023-04-18T04:08:37.972Z,94.40
2023-04-18T04:09:38.046Z,92.80
2023-04-18T04:10:38.100Z,96.18
2023-04-18T04:11:38.130Z,93.23
2023-04-18T04:12:38.181Z,91.58
2023-04-18T04:13:38.232Z,95.85
2023-04-18T04:14:38.291Z,94.18
2023-04-18T04:15:38.388Z,95.04
2023-04-18T04:16:38.516Z,95.79
2023-04-18T04:17:38.576Z,94.27
2023-04-18T04:18:38.580Z,91.18
2023-04-18T04:19:38.579Z,92.58
2023-04-18T04:20:38.620Z,93.88
2023-04-18T04:21:38.679Z,93.71
2023-04-18T04:22:38.832Z,93.06
2023-04-18T04:23:38.828Z,94.48
2023-04-18T04:24:38.892Z,93.41
2023-04-18T04:25:38.905Z,93.54
2023-04-18T04:26:39.001Z,94.32
2023-04-18T04:27:39.353Z,91.75
2023-04-18T04:28:39.076Z,93.07
2023-04-18T04:29:39.268Z,92.53
2023-04-18T04:30:39.205Z,94.80
2023-04-18T04:31:39.348Z,95.34
2023-04-18T04:32:39.353Z,93.10
2023-04-18T04:33:39.387Z,91.40
2023-04-18T04:34:39.897Z,91.88
2023-04-18T04:35:39.505Z,91.81
2023-04-18T04:36:39.569Z,94.45
2023-04-18T04:37:39.643Z,93.58
2023-04-18T04:38:39.650Z,95.85
2023-04-18T04:39:39.765Z,92.05
2023-04-18T04:40:39.806Z,94.51
2023-04-18T04:41:39.872Z,89.53
2023-04-18T04:42:39.883Z,92.61
2023-04-18T04:43:39.980Z,93.77
2023-04-18T04:44:40.054Z,92.19
2023-04-18T04:45:40.176Z,90.35
2023-04-18T04:46:40.124Z,91.68
2023-04-18T04:47:40.187Z,93.16
2023-04-18T04:48:40.224Z,92.28
2023-04-18T04:49:40.324Z,92.41
2023-04-18T04:50:40.301Z,89.73
2023-04-18T04:51:40.357Z,88.87
2023-04-18T04:52:40.398Z,92.60
2023-04-18T04:53:40.453Z,92.28
2023-04-18T04:54:40.544Z,92.01
2023-04-18T04:55:40.600Z,90.74
2023-04-18T04:56:40.639Z,92.71
2023-04-18T04:57:40.686Z,90.95
2023-04-18T04:58:40.742Z,90.12
2023-04-18T04:59:40.929Z,90.80
2023-04-18T05:00:40.855Z,89.71
2023-04-18T05:01:41.868Z,94.53
2023-04-18T05:02:41.032Z,91.56
2023-04-18T05:03:41.214Z,91.17
2023-04-18T05:04:41.454Z,94.98
2023-04-18T05:05:41.089Z,90.74
2023-04-18T05:06:41.160Z,91.05
2023-04-18T05:07:41.237Z,90.57
2023-04-18T05:08:41.250Z,86.74
2023-04-18T05:09:41.317Z,88.58
2023-04-18T05:10:41.349Z,90.45
2023-04-18T05:11:41.400Z,89.32
2023-04-18T05:12:41.474Z,89.81
2023-04-18T05:13:41.538Z,89.13
2023-04-18T05:14:41.552Z,90.57
2023-04-18T05:15:41.584Z,90.50
2023-04-18T05:16:41.737Z,88.89
2023-04-18T05:17:41.740Z,88.79
2023-04-18T05:18:41.851Z,89.53
2023-04-18T05:19:41.831Z,87.66
2023-04-18T05:20:41.883Z,90.76
2023-04-18T05:21:41.925Z,88.72
2023-04-18T05:22:41.969Z,86.86
2023-04-18T05:23:43.871Z,88.12
2023-04-18T05:24:42.052Z,89.88
2023-04-18T05:25:42.106Z,90.73
2023-04-18T05:26:42.145Z,91.59
2023-04-18T05:27:42.205Z,90.28
2023-04-18T05:28:42.878Z,90.21
2023-04-18T05:29:42.369Z,92.67
2023-04-18T05:30:42.446Z,87.97
2023-04-18T05:31:42.546Z,92.05
2023-04-18T05:32:42.527Z,88.80
2023-04-18T05:33:42.546Z,88.25
2023-04-18T05:34:42.976Z,90.57
2023-04-18T05:35:42.640Z,91.81
2023-04-18T05:36:42.795Z,94.21
2023-04-18T05:37:42.773Z,92.62
2023-04-18T05:38:42.843Z,99.47
2023-04-18T05:39:43.407Z,95.07
2023-04-18T05:40:43.872Z,99.80
2023-04-18T05:41:43.001Z,100.35
2023-04-18T05:42:43.078Z,93.03
2023-04-18T05:43:48.363Z,96.57
2023-04-18T05:44:44.394Z,96.94
2023-04-18T05:45:43.119Z,99.49
2023-04-18T05:46:43.250Z,106.88
2023-04-18T05:47:43.189Z,128.90
2023-04-18T05:48:43.071Z,149.83
2023-04-18T05:49:43.086Z,156.64
2023-04-18T05:50:43.382Z,164.20
2023-04-18T05:51:43.064Z,166.48
2023-04-18T05:52:43.056Z,173.91
2023-04-18T05:53:43.423Z,172.86
2023-04-18T05:54:43.020Z,175.91
2023-04-18T05:55:43.026Z,185.08
2023-04-18T05:56:42.999Z,191.25
2023-04-18T05:57:42.998Z,192.85
2023-04-18T05:58:42.982Z,199.49
2023-04-18T05:59:43.023Z,201.99
2023-04-18T06:00:43.076Z,206.18
2023-04-18T06:01:43.116Z,205.90
2023-04-18T06:02:43.285Z,213.24
2023-04-18T06:03:43.734Z,209.06
2023-04-18T06:04:43.363Z,211.48
2023-04-18T06:05:43.433Z,211.93
2023-04-18T06:06:43.426Z,218.19
2023-04-18T06:07:43.434Z,218.06
2023-04-18T06:08:43.471Z,222.05
2023-04-18T06:09:43.633Z,229.55
2023-04-18T06:10:43.576Z,232.56
2023-04-18T06:11:43.613Z,240.68
2023-04-18T06:12:43.663Z,244.45
2023-04-18T06:13:43.749Z,250.00
2023-04-18T06:14:43.742Z,249.41
2023-04-18T06:15:43.802Z,248.46
2023-04-18T06:16:43.923Z,249.13
2023-04-18T06:17:43.867Z,250.72
2023-04-18T06:18:43.972Z,247.77
2023-04-18T06:19:43.896Z,241.75
2023-04-18T06:20:43.932Z,242.15
2023-04-18T06:21:43.958Z,243.56
2023-04-18T06:22:43.980Z,248.50
2023-04-18T06:23:44.034Z,248.23
2023-04-18T06:24:44.042Z,247.22
2023-04-18T06:25:44.117Z,248.41
2023-04-18T06:26:44.111Z,250.00
2023-04-18T06:27:44.109Z,250.00
2023-04-18T06:28:44.157Z,249.05
2023-04-18T06:29:44.157Z,249.87
2023-04-18T06:30:44.270Z,247.87
2023-04-18T06:31:44.272Z,244.78
2023-04-18T06:32:44.208Z,248.55
2023-04-18T06:33:44.204Z,246.15
2023-04-18T06:34:44.185Z,249.81
2023-04-18T06:35:44.195Z,249.51
2023-04-18T06:36:44.182Z,250.00
2023-04-18T06:37:44.193Z,247.53
2023-04-18T06:38:44.406Z,247.23
2023-04-18T06:39:44.885Z,244.40
2023-04-18T06:40:45.483Z,231.06
2023-04-18T06:41:44.201Z,227.70
2023-04-18T06:42:44.226Z,229.89
2023-04-18T06:43:55.751Z,226.72
2023-04-18T06:44:45.260Z,226.87
2023-04-18T06:45:44.463Z,223.79
2023-04-18T06:46:44.914Z,228.56
2023-04-18T06:47:44.281Z,231.11
2023-04-18T06:48:49.877Z,226.54
2023-04-18T06:49:44.918Z,227.59
2023-04-18T06:50:44.433Z,229.43
2023-04-18T06:51:44.254Z,231.89
2023-04-18T06:52:44.344Z,232.95
2023-04-18T06:53:44.208Z,235.01
2023-04-18T06:54:44.175Z,236.16
2023-04-18T06:55:44.318Z,236.06
2023-04-18T06:56:44.264Z,232.98
2023-04-18T06:57:44.214Z,227.71
2023-04-18T06:58:44.214Z,226.56
2023-04-18T06:59:44.131Z,222.89
2023-04-18T07:00:44.461Z,219.06
2023-04-18T07:01:44.117Z,220.21
2023-04-18T07:02:44.256Z,221.43
2023-04-18T07:03:44.463Z,220.22
2023-04-18T07:04:44.179Z,220.30
2023-04-18T07:05:44.448Z,250.07
2023-04-18T07:06:44.105Z,241.61
2023-04-18T07:07:44.116Z,232.79
2023-04-18T07:08:44.071Z,229.45
2023-04-18T07:09:44.050Z,231.41
2023-04-18T07:10:44.422Z,233.05
2023-04-18T07:11:44.072Z,230.70
2023-04-18T07:12:44.060Z,230.61
2023-04-18T07:13:44.086Z,262.28
2023-04-18T07:14:44.027Z,249.45
2023-04-18T07:15:44.414Z,237.12
2023-04-18T07:16:44.070Z,229.03
2023-04-18T07:17:44.095Z,220.96
2023-04-18T07:18:44.025Z,222.46
2023-04-18T07:19:44.013Z,219.68
2023-04-18T07:20:44.042Z,220.39
2023-04-18T07:21:44.101Z,220.49
2023-04-18T07:22:44.172Z,221.41
2023-04-18T07:23:44.198Z,218.59
2023-04-18T07:24:44.387Z,220.71
2023-04-18T07:25:44.296Z,222.17
2023-04-18T07:26:44.327Z,223.73
2023-04-18T07:27:44.423Z,225.01
2023-04-18T07:28:44.480Z,226.58
2023-04-18T07:29:44.533Z,225.98
2023-04-18T07:30:44.740Z,228.23
2023-04-18T07:31:44.631Z,226.90
2023-04-18T07:32:44.762Z,227.82
2023-04-18T07:33:45.028Z,221.80
2023-04-18T07:34:45.922Z,222.74
2023-04-18T07:35:44.890Z,208.93
2023-04-18T07:36:44.919Z,221.68
2023-04-18T07:37:44.934Z,227.30
2023-04-18T07:38:44.986Z,223.47
2023-04-18T07:39:45.423Z,220.44
2023-04-18T07:40:45.155Z,213.96
2023-04-18T07:41:45.267Z,210.74
2023-04-18T07:42:45.239Z,209.41
2023-04-18T07:43:45.312Z,209.82
2023-04-18T07:44:45.461Z,208.20
2023-04-18T07:45:45.394Z,205.74
2023-04-18T07:46:45.474Z,203.81
2023-04-18T07:47:45.505Z,200.54
2023-04-18T07:48:45.510Z,202.30
2023-04-18T07:49:45.486Z,200.90
2023-04-18T07:50:48.431Z,196.76
2023-04-18T07:51:45.497Z,195.92
2023-04-18T07:52:45.465Z,194.28
2023-04-18T07:53:46.436Z,193.61
2023-04-18T07:54:46.523Z,195.08
2023-04-18T07:55:46.029Z,190.93
2023-04-18T07:56:45.494Z,189.92
2023-04-18T07:57:47.457Z,190.48
2023-04-18T07:58:45.435Z,188.18
2023-04-18T07:59:45.457Z,186.10
2023-04-18T08:00:45.921Z,185.71
2023-04-18T08:01:45.479Z,183.61
2023-04-18T08:02:45.497Z,183.57
2023-04-18T08:03:45.509Z,179.12
2023-04-18T08:04:45.557Z,179.86
2023-04-18T08:05:45.396Z,177.62
2023-04-18T08:06:45.380Z,177.81
2023-04-18T08:07:45.402Z,175.80
2023-04-18T08:08:45.376Z,176.01
2023-04-18T08:09:45.438Z,175.25
2023-04-18T08:10:45.456Z,172.39
2023-04-18T08:11:45.473Z,171.37
2023-04-18T08:12:45.469Z,168.21
2023-04-18T08:13:45.572Z,167.69
2023-04-18T08:14:45.631Z,169.40
2023-04-18T08:15:45.629Z,169.83
2023-04-18T08:16:45.688Z,166.48
2023-04-18T08:17:45.850Z,162.55
2023-04-18T08:18:45.702Z,162.46
2023-04-18T08:19:45.801Z,163.00
2023-04-18T08:20:45.822Z,162.41
2023-04-18T08:21:45.834Z,162.11
2023-04-18T08:23:02.341Z,161.29
2023-04-18T08:23:46.870Z,161.41
2023-04-18T08:24:57.478Z,161.27
2023-04-18T08:25:46.970Z,161.44
2023-04-18T08:26:45.893Z,161.38
2023-04-18T08:27:45.922Z,161.44
2023-04-18T08:28:46.468Z,157.90
2023-04-18T08:29:46.100Z,157.49
2023-04-18T08:30:46.240Z,156.83
2023-04-18T08:31:45.881Z,155.50
2023-04-18T08:32:46.021Z,156.71
2023-04-18T08:33:45.792Z,155.88
2023-04-18T08:34:45.987Z,154.23
2023-04-18T08:35:45.826Z,152.01
2023-04-18T08:36:45.936Z,150.30
2023-04-18T08:37:45.865Z,150.29
2023-04-18T08:38:46.055Z,149.39
2023-04-18T08:39:45.918Z,149.54
2023-04-18T08:40:45.950Z,145.18
2023-04-18T08:41:46.453Z,138.20
2023-04-18T08:42:46.004Z,139.00
2023-04-18T08:43:46.241Z,130.92
2023-04-18T08:44:46.086Z,131.15
2023-04-18T08:45:46.229Z,126.34
2023-04-18T08:46:46.482Z,120.94
2023-04-18T08:47:46.977Z,123.01
2023-04-18T08:48:46.156Z,121.34
2023-04-18T08:49:46.157Z,120.37
2023-04-18T08:50:46.224Z,121.65
2023-04-18T08:51:46.468Z,121.46
2023-04-18T08:52:46.179Z,122.65
2023-04-18T08:53:46.200Z,120.22
2023-04-18T08:54:46.468Z,119.00
2023-04-18T08:55:46.264Z,119.97
2023-04-18T08:56:46.445Z,117.11
2023-04-18T08:57:46.410Z,115.43
2023-04-18T08:58:46.359Z,115.69
2023-04-18T08:59:47.745Z,115.60
2023-04-18T09:00:46.399Z,116.08
2023-04-18T09:01:46.614Z,116.65
2023-04-18T09:02:46.626Z,113.13
2023-04-18T09:03:46.379Z,113.58
2023-04-18T09:04:46.398Z,111.41
2023-04-18T09:05:46.473Z,111.14
2023-04-18T09:06:46.365Z,110.45
2023-04-18T09:07:46.353Z,106.61
2023-04-18T09:08:46.374Z,104.49
2023-04-18T09:09:46.370Z,98.48
2023-04-18T09:10:46.888Z,84.56
2023-04-18T09:11:46.447Z,67.03
2023-04-18T09:12:46.338Z,71.63
2023-04-18T09:13:46.324Z,62.37
2023-04-18T09:14:47.092Z,58.95
2023-04-18T09:15:46.315Z,41.89
2023-04-18T09:16:46.357Z,48.26
2023-04-18T09:17:46.323Z,49.37
2023-04-18T09:18:46.291Z,42.09
2023-04-18T09:19:46.292Z,36.04
2023-04-18T09:20:46.501Z,36.23
2023-04-18T09:21:46.455Z,31.41
2023-04-18T09:22:46.257Z,34.86
2023-04-18T09:23:46.307Z,39.00
2023-04-18T09:24:46.299Z,42.05
2023-04-18T09:25:46.278Z,45.04
2023-04-18T09:26:46.226Z,48.77
2023-04-18T09:27:46.222Z,42.19
2023-04-18T09:28:46.229Z,42.82
2023-04-18T09:29:46.231Z,44.65
2023-04-18T09:30:46.256Z,44.79
2023-04-18T09:31:46.376Z,40.95
2023-04-18T09:32:46.248Z,34.63
2023-04-18T09:33:46.208Z,37.61
2023-04-18T09:34:46.445Z,28.80
2023-04-18T09:35:46.480Z,25.00
2023-04-18T09:36:46.238Z,27.75
2023-04-18T09:37:46.142Z,38.89
2023-04-18T09:38:47.100Z,37.50
2023-04-18T09:39:46.156Z,37.75
2023-04-18T09:40:46.191Z,30.69
2023-04-18T09:41:47.122Z,33.13
2023-04-18T09:42:46.304Z,32.42
2023-04-18T09:43:46.349Z,39.96
2023-04-18T09:44:46.320Z,47.28
2023-04-18T09:45:46.382Z,48.38
2023-04-18T09:46:47.631Z,40.55
2023-04-18T09:47:46.512Z,36.95
2023-04-18T09:48:46.527Z,36.79
2023-04-18T09:49:46.492Z,31.32
2023-04-18T09:50:47.056Z,25.00
2023-04-18T09:51:46.980Z,9.46
2023-04-18T09:52:46.560Z,27.44
2023-04-18T09:53:46.621Z,27.05
2023-04-18T09:54:48.240Z,25.00
2023-04-18T09:55:46.773Z,30.65
2023-04-18T09:56:46.771Z,39.39
2023-04-18T09:57:46.822Z,37.36
2023-04-18T09:58:46.937Z,39.37
2023-04-18T09:59:46.898Z,33.26
2023-04-18T10:00:47.031Z,45.75
2023-04-18T10:01:47.087Z,31.24
2023-04-18T10:02:47.044Z,31.40
2023-04-18T10:03:47.234Z,35.29
2023-04-18T10:04:47.288Z,27.20
2023-04-18T10:05:47.248Z,39.88
2023-04-18T10:06:47.257Z,54.56
2023-04-18T10:07:47.277Z,60.68
2023-04-18T10:08:47.285Z,35.58
2023-04-18T10:09:47.296Z,35.73
2023-04-18T10:10:47.370Z,42.36
2023-04-18T10:11:47.391Z,52.94
2023-04-18T10:12:47.514Z,57.94
2023-04-18T10:13:47.539Z,38.38
2023-04-18T10:14:47.561Z,55.13
2023-04-18T10:15:47.565Z,54.11
2023-04-18T10:16:48.644Z,53.05
2023-04-18T10:18:02.844Z,56.26
2023-04-18T10:18:48.584Z,56.64
2023-04-18T10:19:47.537Z,56.57
2023-04-18T10:20:47.547Z,48.88
2023-04-18T10:21:47.514Z,36.44
2023-04-18T10:22:47.506Z,42.89
2023-04-18T10:23:47.520Z,34.97
2023-04-18T10:24:47.548Z,37.86
2023-04-18T10:25:47.508Z,37.81
2023-04-18T10:26:47.523Z,15.03
2023-04-18T10:27:47.513Z,36.48
2023-04-18T10:28:48.091Z,47.21
2023-04-18T10:29:47.457Z,49.52
2023-04-18T10:30:47.985Z,57.95
2023-04-18T10:31:47.661Z,66.02
2023-04-18T10:32:47.520Z,43.06
2023-04-18T10:34:47.610Z,38.79
2023-04-18T10:35:47.596Z,43.95
2023-04-18T10:36:47.612Z,55.24
2023-04-18T10:37:47.669Z,63.50
2023-04-18T10:38:47.674Z,54.68
2023-04-18T10:39:47.754Z,66.98
2023-04-18T10:40:48.480Z,72.64
2023-04-18T10:41:48.832Z,75.07
2023-04-18T10:42:48.020Z,70.45
2023-04-18T10:43:47.895Z,69.75
2023-04-18T10:44:47.954Z,73.50
2023-04-18T10:45:47.965Z,71.22
2023-04-18T10:46:48.523Z,72.57
2023-04-18T10:47:48.117Z,73.87
2023-04-18T10:48:48.137Z,71.65
2023-04-18T10:49:48.110Z,75.87
2023-04-18T10:50:48.143Z,78.90
2023-04-18T10:51:48.212Z,83.20
2023-04-18T10:52:48.200Z,87.64
2023-04-18T10:53:48.240Z,91.96
2023-04-18T10:54:48.309Z,77.68
2023-04-18T10:55:48.358Z,74.84
2023-04-18T10:56:48.371Z,74.68
2023-04-18T10:57:48.380Z,75.53
2023-04-18T10:58:48.376Z,80.21
2023-04-18T10:59:48.445Z,80.91
2023-04-18T11:00:48.476Z,84.31
2023-04-18T11:01:48.493Z,78.24
2023-04-18T11:02:48.733Z,75.70
2023-04-18T11:03:48.632Z,80.91
2023-04-18T11:04:48.599Z,81.73
2023-04-18T11:05:48.578Z,76.89
2023-04-18T11:06:48.755Z,79.17
2023-04-18T11:07:48.787Z,81.77
2023-04-18T11:08:48.668Z,84.11
2023-04-18T11:09:48.717Z,78.41
2023-04-18T11:10:48.768Z,81.81
2023-04-18T11:11:48.790Z,78.85
2023-04-18T11:12:48.796Z,80.98
2023-04-18T11:13:48.852Z,82.14
2023-04-18T11:14:48.856Z,78.01
2023-04-18T11:15:48.897Z,76.86
2023-04-18T11:16:49.051Z,55.40
2023-04-18T11:17:49.101Z,33.00
2023-04-18T11:18:49.521Z,29.89
2023-04-18T11:19:49.051Z,44.70
2023-04-18T11:20:49.118Z,50.52
2023-04-18T11:21:49.145Z,45.24
2023-04-18T11:22:49.234Z,16.90
2023-04-18T11:23:49.273Z,39.10
2023-04-18T11:24:49.321Z,44.02
2023-04-18T11:25:49.335Z,46.33
2023-04-18T11:26:49.567Z,29.47
2023-04-18T11:27:49.463Z,29.58
2023-04-18T11:28:49.515Z,29.98
2023-04-18T11:29:49.558Z,29.33
2023-04-18T11:30:49.622Z,34.69
2023-04-18T11:31:49.707Z,33.27
2023-04-18T11:32:49.705Z,25.20
2023-04-18T11:33:49.637Z,31.48
2023-04-18T11:34:49.676Z,37.20
2023-04-18T11:35:49.650Z,39.81
2023-04-18T11:36:49.700Z,35.39
2023-04-18T11:37:49.670Z,35.30
2023-04-18T11:38:49.655Z,37.69
2023-04-18T11:39:49.707Z,35.82
2023-04-18T11:40:49.785Z,30.23
2023-04-18T11:41:49.655Z,24.15
2023-04-18T11:42:49.650Z,31.28
2023-04-18T11:43:49.663Z,31.22
2023-04-18T11:44:49.690Z,31.85
2023-04-18T11:45:49.724Z,42.07
2023-04-18T11:46:49.712Z,0.00
2023-04-18T11:47:49.766Z,0.00
2023-04-18T11:48:49.726Z,16.63
2023-04-18T11:49:49.797Z,34.64
2023-04-18T11:50:49.766Z,47.07
2023-04-18T11:51:49.809Z,34.76
2023-04-18T11:52:49.826Z,24.08
2023-04-18T11:53:49.835Z,29.17
2023-04-18T11:54:49.861Z,42.14
2023-04-18T11:55:49.888Z,34.94
2023-04-18T11:56:49.909Z,33.86
2023-04-18T11:57:49.941Z,24.48
2023-04-18T11:58:50.027Z,31.17
2023-04-18T11:59:50.031Z,29.15
2023-04-18T12:00:50.034Z,28.08
2023-04-18T12:01:50.116Z,37.64
2023-04-18T12:02:50.245Z,46.31
2023-04-18T12:03:50.298Z,34.69
2023-04-18T12:04:50.637Z,39.44
2023-04-18T12:05:50.330Z,33.81
2023-04-18T12:06:50.299Z,29.19
2023-04-18T12:07:50.319Z,26.79
2023-04-18T12:08:51.227Z,27.73
2023-04-18T12:09:50.396Z,38.59
2023-04-18T12:10:50.419Z,34.36
2023-04-18T12:11:50.495Z,45.28
2023-04-18T12:12:50.504Z,41.82
2023-04-18T12:13:50.536Z,33.55
2023-04-18T12:14:50.679Z,38.11
2023-04-18T12:15:50.681Z,42.98
2023-04-18T12:16:50.700Z,50.50
2023-04-18T12:17:50.885Z,33.23
2023-04-18T12:18:50.779Z,24.86
2023-04-18T12:19:50.868Z,15.74
2023-04-18T12:20:50.908Z,0.00
2023-04-18T12:21:50.998Z,10.94
2023-04-18T12:22:50.995Z,20.00
2023-04-18T12:23:51.071Z,31.49
2023-04-18T12:24:51.067Z,28.28
2023-04-18T12:25:51.141Z,39.79
2023-04-18T12:26:52.064Z,42.52
2023-04-18T12:27:51.252Z,52.48
2023-04-18T12:28:51.275Z,42.48
2023-04-18T12:29:51.361Z,50.08
2023-04-18T12:30:51.466Z,46.76
2023-04-18T12:31:51.616Z,52.52
2023-04-18T12:32:51.605Z,48.96
2023-04-18T12:33:51.604Z,35.72
2023-04-18T12:34:51.631Z,33.53
2023-04-18T12:35:51.705Z,49.21
2023-04-18T12:36:52.038Z,52.22
2023-04-18T12:37:52.055Z,54.86
2023-04-18T12:38:51.886Z,34.70
2023-04-18T12:39:51.937Z,35.37
2023-04-18T12:40:52.057Z,45.11
2023-04-18T12:41:52.076Z,53.59
2023-04-18T12:42:52.555Z,52.92
2023-04-18T12:43:52.245Z,46.50
2023-04-18T12:44:52.225Z,55.29
2023-04-18T12:45:52.302Z,61.33
2023-04-18T12:46:52.384Z,58.54